createdAt,value
2022-09-27T00:00:30.647Z,89.07
2022-09-27T00:03:33.201Z,89.26
2022-09-27T00:06:40.586Z,88.94
2022-09-27T00:09:44.712Z,89.58
2022-09-27T00:12:48.148Z,90.04
2022-09-27T00:15:57.375Z,90.14
2022-09-27T00:19:01.060Z,89.96
2022-09-27T00:22:03.741Z,90.32
2022-09-27T00:25:08.210Z,89.71
2022-09-27T00:28:10.941Z,90.07
2022-09-27T00:31:21.258Z,90.87
2022-09-27T00:34:25.510Z,91.20
2022-09-27T00:37:28.044Z,90.41
2022-09-27T00:40:31.875Z,90.85
2022-09-27T00:43:46.882Z,90.22
2022-09-27T00:46:52.645Z,90.92
2022-09-27T00:49:58.339Z,90.55
2022-09-27T00:53:09.987Z,91.09
2022-09-27T00:56:18.597Z,90.78
2022-09-27T00:59:27.727Z,90.06
2022-09-27T01:02:30.915Z,90.26
2022-09-27T01:05:33.589Z,89.61
2022-09-27T01:08:36.418Z,89.99
2022-09-27T01:11:45.141Z,90.00
2022-09-27T01:15:06.398Z,90.34
2022-09-27T01:18:29.360Z,91.16
2022-09-27T01:21:52.376Z,91.44
2022-09-27T01:25:18.938Z,91.39
2022-09-27T01:28:29.976Z,91.41
2022-09-27T01:31:42.396Z,91.53
2022-09-27T01:34:50.045Z,92.10
2022-09-27T01:38:03.139Z,92.09
2022-09-27T01:41:13.987Z,92.17
2022-09-27T01:44:25.056Z,92.87
2022-09-27T01:47:39.380Z,91.99
2022-09-27T01:50:45.567Z,91.64
2022-09-27T01:53:51.733Z,92.04
2022-09-27T01:56:58.358Z,91.89
2022-09-27T02:00:04.865Z,92.43
2022-09-27T02:03:14.703Z,92.51
2022-09-27T02:06:21.224Z,92.09
2022-09-27T02:09:29.708Z,92.05
2022-09-27T02:12:41.160Z,91.80
2022-09-27T02:15:53.411Z,91.59
2022-09-27T02:19:10.027Z,92.11
2022-09-27T02:22:17.964Z,92.70
2022-09-27T02:25:25.359Z,92.96
2022-09-27T02:28:32.032Z,93.58
2022-09-27T02:31:34.706Z,93.99
2022-09-27T02:34:40.158Z,93.31
2022-09-27T02:37:42.789Z,93.97
2022-09-27T02:40:47.397Z,94.63
2022-09-27T02:43:53.195Z,94.51
2022-09-27T02:47:08.921Z,94.59
2022-09-27T02:50:33.129Z,94.21
2022-09-27T02:53:46.215Z,94.72
2022-09-27T02:56:59.181Z,95.74
2022-09-27T03:00:07.279Z,95.69
2022-09-27T03:03:16.034Z,94.48
2022-09-27T03:06:23.303Z,94.07
2022-09-27T03:09:30.320Z,94.80
2022-09-27T03:12:34.605Z,94.03
2022-09-27T03:15:37.053Z,94.23
2022-09-27T03:18:39.611Z,92.50
2022-09-27T03:21:43.382Z,90.97
2022-09-27T03:24:46.007Z,90.64
2022-09-27T03:27:49.355Z,90.33
2022-09-27T03:30:51.860Z,89.99
2022-09-27T03:33:54.447Z,89.98
2022-09-27T03:36:58.342Z,88.80
2022-09-27T03:40:00.807Z,88.85
2022-09-27T03:43:03.879Z,89.25
2022-09-27T03:46:06.677Z,89.11
2022-09-27T03:49:09.238Z,89.65
2022-09-27T03:52:13.133Z,89.42
2022-09-27T03:55:15.815Z,90.25
2022-09-27T03:58:18.256Z,90.04
2022-09-27T04:01:21.201Z,91.35
2022-09-27T04:04:23.758Z,91.66
2022-09-27T04:07:27.516Z,92.01
2022-09-27T04:10:29.991Z,92.34
2022-09-27T04:13:34.157Z,91.72
2022-09-27T04:16:36.715Z,92.36
2022-09-27T04:19:39.980Z,93.33
2022-09-27T04:22:45.488Z,93.28
2022-09-27T04:25:48.050Z,93.29
2022-09-27T04:28:54.765Z,93.43
2022-09-27T04:31:57.404Z,93.57
2022-09-27T04:35:17.786Z,94.91
2022-09-27T04:38:24.073Z,96.91
2022-09-27T04:41:28.343Z,98.31
2022-09-27T04:44:30.783Z,99.98
2022-09-27T04:47:34.144Z,100.00
2022-09-27T04:50:36.762Z,100.00
2022-09-27T04:53:40.787Z,100.00
2022-09-27T04:56:43.409Z,100.00
2022-09-27T04:59:45.874Z,100.00
2022-09-27T05:02:48.667Z,100.00
2022-09-27T05:05:51.363Z,100.00
2022-09-27T05:08:55.532Z,100.00
2022-09-27T05:11:58.043Z,100.00
2022-09-27T05:15:00.623Z,100.00
2022-09-27T05:18:03.111Z,100.00
2022-09-27T05:21:05.952Z,100.00
2022-09-27T05:24:09.731Z,100.00
2022-09-27T05:27:18.494Z,100.00
2022-09-27T05:30:21.013Z,100.00
2022-09-27T05:33:23.489Z,100.00
2022-09-27T05:36:25.960Z,100.00
2022-09-27T05:39:29.872Z,100.00
2022-09-27T05:42:32.460Z,100.00
2022-09-27T05:45:34.966Z,100.00
2022-09-27T05:48:38.338Z,100.00
2022-09-27T05:51:41.207Z,100.00
2022-09-27T05:54:45.485Z,100.00
2022-09-27T05:57:58.529Z,100.00
2022-09-27T06:01:01.258Z,100.00
2022-09-27T06:04:04.792Z,100.00
2022-09-27T06:07:07.241Z,100.00
2022-09-27T06:10:11.124Z,100.00
2022-09-27T06:13:16.212Z,100.00
2022-09-27T06:16:18.802Z,100.00
2022-09-27T06:19:21.399Z,100.00
2022-09-27T06:22:24.609Z,100.00
2022-09-27T06:25:28.651Z,100.00
2022-09-27T06:28:33.504Z,100.00
2022-09-27T06:31:36.164Z,100.00
2022-09-27T06:34:38.657Z,100.00
2022-09-27T06:37:41.159Z,100.00
2022-09-27T06:40:46.403Z,100.00
2022-09-27T06:43:49.488Z,100.00
2022-09-27T06:46:52.852Z,100.00
2022-09-27T06:49:58.329Z,100.00
2022-09-27T06:53:00.887Z,100.00
2022-09-27T06:56:07.703Z,100.00
2022-09-27T06:59:27.905Z,100.00
2022-09-27T07:02:30.413Z,100.00
2022-09-27T07:05:32.928Z,100.00
2022-09-27T07:08:35.927Z,100.00
2022-09-27T07:11:40.228Z,100.00
2022-09-27T07:14:42.814Z,100.00
2022-09-27T07:17:45.277Z,100.00
2022-09-27T07:20:47.739Z,100.00
2022-09-27T07:23:50.598Z,100.00
2022-09-27T07:26:54.401Z,100.00
2022-09-27T07:29:56.885Z,100.00
2022-09-27T07:33:00.254Z,100.00
2022-09-27T07:36:07.904Z,100.00
2022-09-27T07:39:10.580Z,100.00
2022-09-27T07:42:14.377Z,100.00
2022-09-27T07:45:17.241Z,100.00
2022-09-27T07:48:19.708Z,100.00
2022-09-27T07:51:22.816Z,100.00
2022-09-27T07:54:26.604Z,100.00
2022-09-27T07:57:30.404Z,100.00
2022-09-27T08:00:32.970Z,100.00
2022-09-27T08:03:36.179Z,100.00
2022-09-27T08:06:38.622Z,100.00
2022-09-27T08:09:41.094Z,100.00
2022-09-27T08:12:45.542Z,100.00
2022-09-27T08:15:48.639Z,100.00
2022-09-27T08:18:51.104Z,100.00
2022-09-27T08:21:58.749Z,100.00
2022-09-27T08:25:01.603Z,100.00
2022-09-27T08:28:05.950Z,100.00
2022-09-27T08:31:08.452Z,100.00
2022-09-27T08:34:10.925Z,100.00
2022-09-27T08:37:13.371Z,100.00
2022-09-27T08:40:17.714Z,100.00
2022-09-27T08:43:36.644Z,100.00
2022-09-27T08:46:48.888Z,100.00
2022-09-27T08:49:55.739Z,100.00
2022-09-27T08:53:01.251Z,100.00
2022-09-27T08:56:04.577Z,100.00
2022-09-27T08:59:15.407Z,100.00
2022-09-27T09:02:19.998Z,100.00
2022-09-27T09:05:31.232Z,100.00
2022-09-27T09:08:44.386Z,100.00
2022-09-27T09:12:18.769Z,100.00
2022-09-27T09:15:32.828Z,100.00
2022-09-27T09:18:45.743Z,100.00
2022-09-27T09:22:00.643Z,100.00
2022-09-27T09:25:21.097Z,100.00
2022-09-27T09:28:36.855Z,100.00
2022-09-27T09:31:44.171Z,100.00
2022-09-27T09:34:50.216Z,100.00
2022-09-27T09:37:56.930Z,100.00
2022-09-27T09:41:04.459Z,100.00
2022-09-27T09:44:17.200Z,100.00
2022-09-27T09:47:27.893Z,100.00
2022-09-27T09:50:36.193Z,100.00
2022-09-27T09:53:47.990Z,100.00
2022-09-27T09:56:57.160Z,100.00
2022-09-27T10:00:03.307Z,100.00
2022-09-27T10:03:07.292Z,100.00
2022-09-27T10:06:11.668Z,100.00
2022-09-27T10:09:16.729Z,100.00
2022-09-27T10:12:19.458Z,100.00
2022-09-27T10:15:23.929Z,100.00
2022-09-27T10:18:28.542Z,100.00
2022-09-27T10:21:31.208Z,100.00
2022-09-27T10:24:55.648Z,100.00
2022-09-27T10:27:58.169Z,100.00
2022-09-27T10:31:03.196Z,100.00
2022-09-27T10:34:07.043Z,100.00
2022-09-27T10:37:18.388Z,100.00
2022-09-27T10:40:28.587Z,100.00
2022-09-27T10:43:34.576Z,100.00
2022-09-27T10:46:37.141Z,100.00
2022-09-27T10:49:42.981Z,100.00
2022-09-27T10:52:45.714Z,100.00
2022-09-27T10:55:50.999Z,100.00
2022-09-27T10:58:53.803Z,100.00
2022-09-27T11:01:56.356Z,100.00
2022-09-27T11:05:15.446Z,100.00
2022-09-27T11:08:24.356Z,100.00
2022-09-27T11:11:28.617Z,100.00
2022-09-27T11:14:32.990Z,100.00
2022-09-27T11:17:48.996Z,100.00
2022-09-27T11:21:02.992Z,100.00
2022-09-27T11:24:22.416Z,100.00
2022-09-27T11:27:34.036Z,100.00
2022-09-27T11:30:48.936Z,100.00
2022-09-27T11:34:12.092Z,100.00
2022-09-27T11:37:28.432Z,100.00
2022-09-27T11:40:41.071Z,100.00
2022-09-27T11:43:56.858Z,100.00
2022-09-27T11:47:12.082Z,100.00
2022-09-27T11:50:57.814Z,100.00
2022-09-27T11:54:14.627Z,100.00
2022-09-27T11:57:26.365Z,100.00
2022-09-27T12:00:44.162Z,100.00
2022-09-27T12:04:13.625Z,100.00
2022-09-27T12:07:24.434Z,100.00
2022-09-27T12:10:28.647Z,100.00
2022-09-27T12:13:37.408Z,100.00
2022-09-27T12:16:42.865Z,100.00
2022-09-27T12:19:50.417Z,100.00
2022-09-27T12:22:59.656Z,100.00
2022-09-27T12:26:10.300Z,100.00
2022-09-27T12:29:16.563Z,99.69
2022-09-27T12:32:24.320Z,100.00
2022-09-27T12:35:30.446Z,100.00
2022-09-27T12:38:40.749Z,100.00
2022-09-27T12:41:49.971Z,100.00
2022-09-27T12:44:53.414Z,100.00
2022-09-27T12:48:06.450Z,100.00
2022-09-27T12:51:11.141Z,100.00
2022-09-27T12:54:38.281Z,100.00
2022-09-27T12:57:51.545Z,100.00
2022-09-27T13:00:59.341Z,100.00
2022-09-27T13:04:17.929Z,100.00
2022-09-27T13:07:34.928Z,100.00
2022-09-27T13:10:49.122Z,100.00
2022-09-27T13:13:56.227Z,100.00
2022-09-27T13:16:58.860Z,100.00
2022-09-27T13:20:42.523Z,100.00
2022-09-27T13:23:53.956Z,100.00
2022-09-27T13:26:56.510Z,100.00
2022-09-27T13:30:47.018Z,100.00
2022-09-27T13:33:52.609Z,100.00
2022-09-27T13:36:55.102Z,100.00
2022-09-27T13:40:12.620Z,100.00
2022-09-27T13:43:51.247Z,100.00
2022-09-27T13:46:59.489Z,100.00
2022-09-27T13:50:15.697Z,100.00
2022-09-27T13:53:25.078Z,100.00
2022-09-27T13:56:49.903Z,100.00
2022-09-27T13:59:58.084Z,100.00
2022-09-27T14:03:03.471Z,100.00
2022-09-27T14:06:10.015Z,100.00
2022-09-27T14:09:20.207Z,100.00
2022-09-27T14:12:26.219Z,100.00
2022-09-27T14:15:31.214Z,100.00
2022-09-27T14:18:35.784Z,100.00
2022-09-27T14:21:41.601Z,100.00
2022-09-27T14:24:49.586Z,100.00
2022-09-27T14:27:52.424Z,100.00
2022-09-27T14:31:08.836Z,100.00
2022-09-27T14:34:13.205Z,100.00
2022-09-27T14:37:27.566Z,100.00
2022-09-27T14:40:31.793Z,100.00
2022-09-27T14:43:36.203Z,100.00
2022-09-27T14:46:38.738Z,100.00
2022-09-27T14:49:48.307Z,100.00
2022-09-27T14:52:55.512Z,100.00
2022-09-27T14:55:59.285Z,100.00
2022-09-27T14:59:06.518Z,100.00
2022-09-27T15:02:20.131Z,100.00
2022-09-27T15:05:25.260Z,100.00
2022-09-27T15:08:33.469Z,100.00
2022-09-27T15:11:36.304Z,100.00
2022-09-27T15:14:41.355Z,100.00
2022-09-27T15:17:45.384Z,100.00
2022-09-27T15:20:54.676Z,100.00
2022-09-27T15:23:58.828Z,100.00
2022-09-27T15:27:01.384Z,100.00
2022-09-27T15:30:05.606Z,100.00
2022-09-27T15:33:19.870Z,100.00
2022-09-27T15:36:52.205Z,100.00
2022-09-27T15:39:56.002Z,100.00
2022-09-27T15:43:00.206Z,100.00
2022-09-27T15:46:05.125Z,100.00
2022-09-27T15:49:38.092Z,100.00
2022-09-27T15:52:43.296Z,100.00
2022-09-27T15:55:47.108Z,100.00
2022-09-27T15:58:49.553Z,100.00
2022-09-27T16:01:56.957Z,100.00
2022-09-27T16:04:59.477Z,100.00
2022-09-27T16:08:02.459Z,100.00
2022-09-27T16:11:06.514Z,100.00
2022-09-27T16:14:08.984Z,100.00
2022-09-27T16:17:11.891Z,100.00
2022-09-27T16:20:19.506Z,100.00
2022-09-27T16:23:21.977Z,100.00
2022-09-27T16:26:25.756Z,100.00
2022-09-27T16:29:28.364Z,100.00
2022-09-27T16:32:31.067Z,100.00
2022-09-27T16:35:33.537Z,100.00
2022-09-27T16:38:35.991Z,100.00
2022-09-27T16:41:42.238Z,100.00
2022-09-27T16:44:44.692Z,100.00
2022-09-27T16:47:47.394Z,100.00
2022-09-27T16:51:07.514Z,100.00
2022-09-27T16:54:10.421Z,100.00
2022-09-27T16:57:14.336Z,100.00
2022-09-27T17:00:17.558Z,100.00
2022-09-27T17:03:20.054Z,100.00
2022-09-27T17:06:23.211Z,100.00
2022-09-27T17:09:25.903Z,100.00
2022-09-27T17:12:29.701Z,100.00
2022-09-27T17:15:32.163Z,100.00
2022-09-27T17:18:34.675Z,100.00
2022-09-27T17:21:38.275Z,100.00
2022-09-27T17:24:40.924Z,100.00
2022-09-27T17:27:44.693Z,100.00
2022-09-27T17:30:47.270Z,100.00
2022-09-27T17:33:56.851Z,100.00
2022-09-27T17:37:00.802Z,100.00
2022-09-27T17:40:04.031Z,100.00
2022-09-27T17:43:07.892Z,100.00
2022-09-27T17:46:11.334Z,100.00
2022-09-27T17:49:33.294Z,100.00
2022-09-27T17:52:35.876Z,100.00
2022-09-27T17:55:38.390Z,100.00
2022-09-27T17:58:46.557Z,100.00
2022-09-27T18:01:49.634Z,100.00
2022-09-27T18:04:52.185Z,100.00
2022-09-27T18:07:54.646Z,100.00
2022-09-27T18:10:57.150Z,100.00
2022-09-27T18:14:01.599Z,100.00
2022-09-27T18:17:04.058Z,100.00
2022-09-27T18:20:08.941Z,100.00
2022-09-27T18:23:11.384Z,100.00
2022-09-27T18:26:13.858Z,100.00
2022-09-27T18:29:19.186Z,100.00
2022-09-27T18:32:21.674Z,100.00
2022-09-27T18:35:24.812Z,100.00
2022-09-27T18:38:27.264Z,100.00
2022-09-27T18:41:31.866Z,100.00
2022-09-27T18:44:35.718Z,100.00
2022-09-27T18:47:38.270Z,100.00
2022-09-27T18:50:40.844Z,100.00
2022-09-27T18:53:45.402Z,100.00
2022-09-27T18:56:49.728Z,100.00
2022-09-27T18:59:54.431Z,100.00
2022-09-27T19:02:56.916Z,100.00
2022-09-27T19:06:01.698Z,100.00
2022-09-27T19:09:05.210Z,100.00
2022-09-27T19:12:07.685Z,100.00
2022-09-27T19:15:11.988Z,100.00
2022-09-27T19:18:14.464Z,100.00
2022-09-27T19:21:18.758Z,100.00
2022-09-27T19:24:21.259Z,100.00
2022-09-27T19:27:23.999Z,100.00
2022-09-27T19:30:27.778Z,100.00
2022-09-27T19:33:30.211Z,100.00
2022-09-27T19:36:32.677Z,100.00
2022-09-27T19:39:35.259Z,100.00
2022-09-27T19:42:37.728Z,100.00
2022-09-27T19:45:41.917Z,100.00
2022-09-27T19:48:45.383Z,100.00
2022-09-27T19:51:47.826Z,100.00
2022-09-27T19:54:50.259Z,100.00
2022-09-27T19:57:52.698Z,100.00
2022-09-27T20:01:01.190Z,100.00
2022-09-27T20:04:03.959Z,100.00
2022-09-27T20:07:06.416Z,100.00
2022-09-27T20:10:09.856Z,100.00
2022-09-27T20:13:12.313Z,100.00
2022-09-27T20:16:18.366Z,100.00
2022-09-27T20:19:20.895Z,100.00
2022-09-27T20:22:23.410Z,100.00
2022-09-27T20:25:26.428Z,100.00
2022-09-27T20:28:28.990Z,100.00
2022-09-27T20:31:36.847Z,100.00
2022-09-27T20:34:39.478Z,100.00
2022-09-27T20:37:41.907Z,100.00
2022-09-27T20:40:44.465Z,100.00
2022-09-27T20:43:47.523Z,100.00
2022-09-27T20:46:51.419Z,100.00
2022-09-27T20:49:53.961Z,100.00
2022-09-27T20:52:56.435Z,100.00
2022-09-27T20:56:02.477Z,100.00
2022-09-27T20:59:12.725Z,100.00
2022-09-27T21:02:18.494Z,100.00
2022-09-27T21:05:21.022Z,100.00
2022-09-27T21:08:24.406Z,100.00
2022-09-27T21:11:27.434Z,100.00
2022-09-27T21:14:29.882Z,100.00
2022-09-27T21:17:33.632Z,100.00
2022-09-27T21:20:36.059Z,100.00
2022-09-27T21:23:44.280Z,100.00
2022-09-27T21:26:47.546Z,100.00
2022-09-27T21:29:49.977Z,100.00
2022-09-27T21:32:56.069Z,100.00
2022-09-27T21:35:58.902Z,100.00
2022-09-27T21:39:02.004Z,100.00
2022-09-27T21:42:04.558Z,100.00
2022-09-27T21:45:07.859Z,100.00
2022-09-27T21:48:11.622Z,100.00
2022-09-27T21:51:15.855Z,100.00
2022-09-27T21:54:18.322Z,100.00
2022-09-27T21:57:20.766Z,100.00
2022-09-27T22:00:23.436Z,100.00
2022-09-27T22:03:27.312Z,100.00
2022-09-27T22:06:31.978Z,100.00
2022-09-27T22:09:34.435Z,100.00
2022-09-27T22:12:36.867Z,100.00
2022-09-27T22:15:39.769Z,100.00
2022-09-27T22:18:46.094Z,100.00
2022-09-27T22:21:48.681Z,100.00
2022-09-27T22:24:51.147Z,100.00
2022-09-27T22:27:53.591Z,100.00
2022-09-27T22:30:56.114Z,100.00
2022-09-27T22:34:01.676Z,100.00
2022-09-27T22:37:04.168Z,100.00
2022-09-27T22:40:10.293Z,100.00
2022-09-27T22:43:13.345Z,100.00
2022-09-27T22:46:16.054Z,100.00
2022-09-27T22:49:19.926Z,100.00
2022-09-27T22:52:22.540Z,100.00
2022-09-27T22:55:25.016Z,100.00
2022-09-27T22:58:28.074Z,100.00
2022-09-27T23:01:31.530Z,100.00
2022-09-27T23:04:35.359Z,100.00
2022-09-27T23:07:37.804Z,100.00
2022-09-27T23:10:40.366Z,100.00
2022-09-27T23:13:44.306Z,100.00
2022-09-27T23:16:46.825Z,100.00
2022-09-27T23:19:50.620Z,100.00
2022-09-27T23:22:53.811Z,100.00
2022-09-27T23:26:01.077Z,100.00
2022-09-27T23:29:04.090Z,100.00
2022-09-27T23:32:07.801Z,100.00
2022-09-27T23:35:12.323Z,100.00
2022-09-27T23:38:14.990Z,100.00
2022-09-27T23:41:18.933Z,100.00
2022-09-27T23:44:22.718Z,100.00
2022-09-27T23:47:25.236Z,100.00
2022-09-27T23:50:29.131Z,100.00
2022-09-27T23:53:31.912Z,100.00
2022-09-27T23:56:34.395Z,100.00
2022-09-27T23:59:38.399Z,100.00
